sensor_id;sensor_type;location;lat;lon;timestamp;P1;durP1;ratioP1;P2;durP2;ratioP2
51654;SDS011;37732;53.106;7.030;2023-08-12T00:01:02;10.30;;;7.13;;
51654;SDS011;37732;53.106;7.030;2023-08-12T00:03:28;7.30;;;5.43;;
51654;SDS011;37732;53.106;7.030;2023-08-12T00:05:57;11.15;;;7.40;;
51654;SDS011;37732;53.106;7.030;2023-08-12T00:08:28;9.15;;;6.47;;
51654;SDS011;37732;53.106;7.030;2023-08-12T00:10:54;11.15;;;7.18;;
51654;SDS011;37732;53.106;7.030;2023-08-12T00:13:21;8.57;;;7.22;;
51654;SDS011;37732;53.106;7.030;2023-08-12T00:15:47;7.82;;;6.57;;
51654;SDS011;37732;53.106;7.030;2023-08-12T00:18:13;7.57;;;5.13;;
51654;SDS011;37732;53.106;7.030;2023-08-12T00:20:42;10.02;;;5.10;;
51654;SDS011;37732;53.106;7.030;2023-08-12T00:23:08;6.47;;;5.03;;
51654;SDS011;37732;53.106;7.030;2023-08-12T00:25:38;7.97;;;5.55;;
51654;SDS011;37732;53.106;7.030;2023-08-12T00:28:05;8.98;;;6.72;;
51654;SDS011;37732;53.106;7.030;2023-08-12T00:30:31;8.95;;;6.13;;
51654;SDS011;37732;53.106;7.030;2023-08-12T00:32:59;7.13;;;5.07;;
51654;SDS011;37732;53.106;7.030;2023-08-12T00:35:25;9.77;;;5.75;;
51654;SDS011;37732;53.106;7.030;2023-08-12T00:37:51;7.70;;;5.13;;
51654;SDS011;37732;53.106;7.030;2023-08-12T00:40:17;8.35;;;5.65;;
51654;SDS011;37732;53.106;7.030;2023-08-12T00:42:43;7.75;;;5.05;;
51654;SDS011;37732;53.106;7.030;2023-08-12T00:45:09;8.15;;;4.68;;
51654;SDS011;37732;53.106;7.030;2023-08-12T00:47:39;6.80;;;3.92;;
51654;SDS011;37732;53.106;7.030;2023-08-12T00:50:08;8.05;;;4.63;;
51654;SDS011;37732;53.106;7.030;2023-08-12T00:52:37;6.50;;;4.68;;
51654;SDS011;37732;53.106;7.030;2023-08-12T00:55:04;6.30;;;4.47;;
51654;SDS011;37732;53.106;7.030;2023-08-12T00:57:31;7.45;;;4.80;;
51654;SDS011;37732;53.106;7.030;2023-08-12T00:59:57;6.63;;;4.75;;
51654;SDS011;37732;53.106;7.030;2023-08-12T01:02:26;7.20;;;4.90;;
51654;SDS011;37732;53.106;7.030;2023-08-12T01:04:56;9.43;;;5.55;;
51654;SDS011;37732;53.106;7.030;2023-08-12T01:07:23;10.95;;;5.65;;
51654;SDS011;37732;53.106;7.030;2023-08-12T01:09:50;8.40;;;5.43;;
51654;SDS011;37732;53.106;7.030;2023-08-12T01:17:42;6.65;;;4.53;;
51654;SDS011;37732;53.106;7.030;2023-08-12T01:20:10;10.70;;;5.75;;
51654;SDS011;37732;53.106;7.030;2023-08-12T01:22:39;7.85;;;4.57;;
51654;SDS011;37732;53.106;7.030;2023-08-12T01:25:09;8.40;;;4.75;;
51654;SDS011;37732;53.106;7.030;2023-08-12T01:27:37;12.07;;;6.88;;
51654;SDS011;37732;53.106;7.030;2023-08-12T01:30:07;6.88;;;4.45;;
51654;SDS011;37732;53.106;7.030;2023-08-12T01:32:48;8.57;;;5.03;;
51654;SDS011;37732;53.106;7.030;2023-08-12T01:35:37;10.82;;;5.80;;
51654;SDS011;37732;53.106;7.030;2023-08-12T01:38:12;8.47;;;5.20;;
51654;SDS011;37732;53.106;7.030;2023-08-12T01:40:40;10.13;;;6.28;;
51654;SDS011;37732;53.106;7.030;2023-08-12T01:43:09;8.55;;;4.63;;
51654;SDS011;37732;53.106;7.030;2023-08-12T01:45:36;8.18;;;5.45;;
51654;SDS011;37732;53.106;7.030;2023-08-12T01:48:02;10.02;;;5.97;;
51654;SDS011;37732;53.106;7.030;2023-08-12T01:50:28;9.98;;;6.53;;
51654;SDS011;37732;53.106;7.030;2023-08-12T01:52:55;8.88;;;5.88;;
51654;SDS011;37732;53.106;7.030;2023-08-12T01:55:23;8.95;;;6.18;;
51654;SDS011;37732;53.106;7.030;2023-08-12T01:57:52;7.30;;;4.35;;
51654;SDS011;37732;53.106;7.030;2023-08-12T02:00:19;6.82;;;5.00;;
51654;SDS011;37732;53.106;7.030;2023-08-12T02:02:46;7.28;;;5.90;;
51654;SDS011;37732;53.106;7.030;2023-08-12T02:05:12;6.97;;;3.95;;
51654;SDS011;37732;53.106;7.030;2023-08-12T02:07:38;7.53;;;4.82;;
51654;SDS011;37732;53.106;7.030;2023-08-12T02:10:05;10.10;;;5.80;;
51654;SDS011;37732;53.106;7.030;2023-08-12T02:12:31;7.03;;;5.07;;
51654;SDS011;37732;53.106;7.030;2023-08-12T02:14:59;6.65;;;4.60;;
51654;SDS011;37732;53.106;7.030;2023-08-12T02:17:28;8.27;;;5.80;;
51654;SDS011;37732;53.106;7.030;2023-08-12T02:19:55;8.70;;;6.47;;
51654;SDS011;37732;53.106;7.030;2023-08-12T02:22:21;11.60;;;8.00;;
51654;SDS011;37732;53.106;7.030;2023-08-12T02:24:49;8.98;;;6.57;;
51654;SDS011;37732;53.106;7.030;2023-08-12T02:27:16;8.40;;;6.82;;
51654;SDS011;37732;53.106;7.030;2023-08-12T02:29:46;9.60;;;6.57;;
51654;SDS011;37732;53.106;7.030;2023-08-12T02:32:13;6.93;;;5.03;;
51654;SDS011;37732;53.106;7.030;2023-08-12T02:34:38;10.07;;;6.50;;
51654;SDS011;37732;53.106;7.030;2023-08-12T02:37:04;10.10;;;6.20;;
51654;SDS011;37732;53.106;7.030;2023-08-12T02:39:30;8.52;;;7.45;;
51654;SDS011;37732;53.106;7.030;2023-08-12T02:41:59;10.20;;;6.55;;
51654;SDS011;37732;53.106;7.030;2023-08-12T02:44:28;11.27;;;7.97;;
51654;SDS011;37732;53.106;7.030;2023-08-12T02:46:55;8.25;;;5.20;;
51654;SDS011;37732;53.106;7.030;2023-08-12T02:49:21;14.65;;;10.20;;
51654;SDS011;37732;53.106;7.030;2023-08-12T02:51:47;11.10;;;8.00;;
51654;SDS011;37732;53.106;7.030;2023-08-12T02:54:12;10.63;;;6.72;;
51654;SDS011;37732;53.106;7.030;2023-08-12T02:56:39;12.48;;;6.60;;
51654;SDS011;37732;53.106;7.030;2023-08-12T02:59:05;15.95;;;10.75;;
51654;SDS011;37732;53.106;7.030;2023-08-12T03:01:31;12.88;;;7.57;;
51654;SDS011;37732;53.106;7.030;2023-08-12T03:03:58;11.30;;;8.48;;
51654;SDS011;37732;53.106;7.030;2023-08-12T03:06:25;13.18;;;8.90;;
51654;SDS011;37732;53.106;7.030;2023-08-12T03:08:53;8.63;;;5.60;;
51654;SDS011;37732;53.106;7.030;2023-08-12T03:11:20;11.50;;;6.72;;
51654;SDS011;37732;53.106;7.030;2023-08-12T03:13:46;10.82;;;7.55;;
51654;SDS011;37732;53.106;7.030;2023-08-12T03:16:13;10.85;;;8.23;;
51654;SDS011;37732;53.106;7.030;2023-08-12T03:18:39;8.13;;;6.15;;
51654;SDS011;37732;53.106;7.030;2023-08-12T03:21:08;9.35;;;6.95;;
51654;SDS011;37732;53.106;7.030;2023-08-12T03:23:37;9.57;;;6.38;;
51654;SDS011;37732;53.106;7.030;2023-08-12T03:26:08;13.25;;;10.15;;
51654;SDS011;37732;53.106;7.030;2023-08-12T03:28:36;15.88;;;12.60;;
51654;SDS011;37732;53.106;7.030;2023-08-12T03:31:04;15.95;;;9.60;;
51654;SDS011;37732;53.106;7.030;2023-08-12T03:33:30;12.68;;;9.23;;
51654;SDS011;37732;53.106;7.030;2023-08-12T03:35:57;13.30;;;10.63;;
51654;SDS011;37732;53.106;7.030;2023-08-12T03:38:25;11.93;;;9.05;;
51654;SDS011;37732;53.106;7.030;2023-08-12T03:40:51;11.93;;;7.53;;
51654;SDS011;37732;53.106;7.030;2023-08-12T03:43:18;11.32;;;7.70;;
51654;SDS011;37732;53.106;7.030;2023-08-12T03:45:46;10.30;;;8.18;;
51654;SDS011;37732;53.106;7.030;2023-08-12T03:48:13;16.40;;;9.52;;
51654;SDS011;37732;53.106;7.030;2023-08-12T03:50:39;15.60;;;9.75;;
51654;SDS011;37732;53.106;7.030;2023-08-12T03:53:06;17.60;;;9.50;;
51654;SDS011;37732;53.106;7.030;2023-08-12T03:55:35;19.35;;;11.95;;
51654;SDS011;37732;53.106;7.030;2023-08-12T03:58:02;17.23;;;10.50;;
51654;SDS011;37732;53.106;7.030;2023-08-12T04:00:28;13.88;;;9.93;;
51654;SDS011;37732;53.106;7.030;2023-08-12T04:02:57;15.10;;;9.57;;
51654;SDS011;37732;53.106;7.030;2023-08-12T04:05:23;19.65;;;12.95;;
51654;SDS011;37732;53.106;7.030;2023-08-12T04:07:49;15.43;;;11.25;;
51654;SDS011;37732;53.106;7.030;2023-08-12T04:10:15;12.38;;;10.82;;
51654;SDS011;37732;53.106;7.030;2023-08-12T04:12:43;15.68;;;11.73;;
51654;SDS011;37732;53.106;7.030;2023-08-12T04:15:09;18.88;;;13.82;;
51654;SDS011;37732;53.106;7.030;2023-08-12T04:17:41;16.10;;;12.02;;
51654;SDS011;37732;53.106;7.030;2023-08-12T04:20:09;11.05;;;8.38;;
51654;SDS011;37732;53.106;7.030;2023-08-12T04:22:35;16.95;;;12.73;;
51654;SDS011;37732;53.106;7.030;2023-08-12T04:25:02;14.82;;;12.07;;
51654;SDS011;37732;53.106;7.030;2023-08-12T04:27:30;14.10;;;12.20;;
51654;SDS011;37732;53.106;7.030;2023-08-12T04:29:56;13.48;;;9.55;;
51654;SDS011;37732;53.106;7.030;2023-08-12T04:32:24;16.80;;;11.65;;
51654;SDS011;37732;53.106;7.030;2023-08-12T04:34:53;14.35;;;10.75;;
51654;SDS011;37732;53.106;7.030;2023-08-12T04:37:21;20.30;;;13.35;;
51654;SDS011;37732;53.106;7.030;2023-08-12T04:39:49;11.05;;;9.65;;
51654;SDS011;37732;53.106;7.030;2023-08-12T04:42:17;18.98;;;13.25;;
51654;SDS011;37732;53.106;7.030;2023-08-12T04:44:43;17.90;;;14.30;;
51654;SDS011;37732;53.106;7.030;2023-08-12T04:47:12;17.67;;;12.70;;
51654;SDS011;37732;53.106;7.030;2023-08-12T04:49:40;19.13;;;14.48;;
51654;SDS011;37732;53.106;7.030;2023-08-12T04:52:06;18.23;;;14.52;;
51654;SDS011;37732;53.106;7.030;2023-08-12T04:54:34;15.38;;;12.95;;
51654;SDS011;37732;53.106;7.030;2023-08-12T04:57:02;13.55;;;9.80;;
51654;SDS011;37732;53.106;7.030;2023-08-12T04:59:28;20.85;;;12.85;;
51654;SDS011;37732;53.106;7.030;2023-08-12T05:01:54;16.10;;;12.95;;
51654;SDS011;37732;53.106;7.030;2023-08-12T05:04:22;16.23;;;11.57;;
51654;SDS011;37732;53.106;7.030;2023-08-12T05:06:49;15.48;;;12.45;;
51654;SDS011;37732;53.106;7.030;2023-08-12T05:09:16;18.70;;;14.38;;
51654;SDS011;37732;53.106;7.030;2023-08-12T05:11:42;19.00;;;15.25;;
51654;SDS011;37732;53.106;7.030;2023-08-12T05:14:08;17.33;;;14.02;;
51654;SDS011;37732;53.106;7.030;2023-08-12T05:16:36;22.90;;;16.95;;
51654;SDS011;37732;53.106;7.030;2023-08-12T05:19:02;21.13;;;14.23;;
51654;SDS011;37732;53.106;7.030;2023-08-12T05:21:31;13.88;;;9.57;;
51654;SDS011;37732;53.106;7.030;2023-08-12T05:23:59;13.65;;;11.02;;
51654;SDS011;37732;53.106;7.030;2023-08-12T05:26:25;20.30;;;14.68;;
51654;SDS011;37732;53.106;7.030;2023-08-12T05:28:52;17.58;;;14.32;;
51654;SDS011;37732;53.106;7.030;2023-08-12T05:31:18;21.13;;;16.30;;
51654;SDS011;37732;53.106;7.030;2023-08-12T05:33:44;17.50;;;13.10;;
51654;SDS011;37732;53.106;7.030;2023-08-12T05:36:10;19.73;;;14.10;;
51654;SDS011;37732;53.106;7.030;2023-08-12T05:38:36;26.20;;;19.15;;
51654;SDS011;37732;53.106;7.030;2023-08-12T05:41:01;20.00;;;13.85;;
51654;SDS011;37732;53.106;7.030;2023-08-12T05:43:32;23.38;;;16.63;;
51654;SDS011;37732;53.106;7.030;2023-08-12T05:46:03;20.25;;;15.20;;
51654;SDS011;37732;53.106;7.030;2023-08-12T05:48:29;19.13;;;14.25;;
51654;SDS011;37732;53.106;7.030;2023-08-12T05:50:56;19.90;;;13.75;;
51654;SDS011;37732;53.106;7.030;2023-08-12T05:53:22;18.25;;;14.60;;
51654;SDS011;37732;53.106;7.030;2023-08-12T05:55:49;15.70;;;12.70;;
51654;SDS011;37732;53.106;7.030;2023-08-12T05:58:15;15.05;;;13.40;;
51654;SDS011;37732;53.106;7.030;2023-08-12T06:00:43;21.20;;;17.15;;
51654;SDS011;37732;53.106;7.030;2023-08-12T06:03:12;22.35;;;16.02;;
51654;SDS011;37732;53.106;7.030;2023-08-12T06:05:40;17.55;;;13.30;;
51654;SDS011;37732;53.106;7.030;2023-08-12T06:08:06;21.45;;;16.52;;
51654;SDS011;37732;53.106;7.030;2023-08-12T06:10:33;21.63;;;16.23;;
51654;SDS011;37732;53.106;7.030;2023-08-12T06:13:00;20.95;;;14.35;;
51654;SDS011;37732;53.106;7.030;2023-08-12T06:15:26;20.85;;;17.27;;
51654;SDS011;37732;53.106;7.030;2023-08-12T06:17:52;17.67;;;14.10;;
51654;SDS011;37732;53.106;7.030;2023-08-12T06:20:19;19.50;;;15.93;;
51654;SDS011;37732;53.106;7.030;2023-08-12T06:22:46;23.45;;;17.05;;
51654;SDS011;37732;53.106;7.030;2023-08-12T06:25:12;19.90;;;16.70;;
51654;SDS011;37732;53.106;7.030;2023-08-12T06:27:38;21.98;;;17.67;;
51654;SDS011;37732;53.106;7.030;2023-08-12T06:30:04;15.75;;;14.02;;
51654;SDS011;37732;53.106;7.030;2023-08-12T06:32:33;21.58;;;17.10;;
51654;SDS011;37732;53.106;7.030;2023-08-12T06:35:02;20.23;;;17.60;;
51654;SDS011;37732;53.106;7.030;2023-08-12T06:37:30;22.92;;;18.45;;
51654;SDS011;37732;53.106;7.030;2023-08-12T06:39:56;22.10;;;17.65;;
51654;SDS011;37732;53.106;7.030;2023-08-12T06:42:23;21.38;;;18.80;;
51654;SDS011;37732;53.106;7.030;2023-08-12T06:44:56;22.20;;;19.05;;
51654;SDS011;37732;53.106;7.030;2023-08-12T06:47:22;21.88;;;17.98;;
51654;SDS011;37732;53.106;7.030;2023-08-12T06:49:50;21.27;;;18.15;;
51654;SDS011;37732;53.106;7.030;2023-08-12T06:52:17;22.00;;;19.63;;
51654;SDS011;37732;53.106;7.030;2023-08-12T06:54:44;24.48;;;21.75;;
51654;SDS011;37732;53.106;7.030;2023-08-12T06:57:11;23.15;;;19.83;;
51654;SDS011;37732;53.106;7.030;2023-08-12T06:59:39;25.83;;;21.52;;
51654;SDS011;37732;53.106;7.030;2023-08-12T07:02:10;28.40;;;24.77;;
51654;SDS011;37732;53.106;7.030;2023-08-12T07:04:39;33.45;;;24.45;;
51654;SDS011;37732;53.106;7.030;2023-08-12T07:07:07;26.00;;;22.48;;
51654;SDS011;37732;53.106;7.030;2023-08-12T07:09:33;29.35;;;22.67;;
51654;SDS011;37732;53.106;7.030;2023-08-12T07:12:01;26.77;;;22.38;;
51654;SDS011;37732;53.106;7.030;2023-08-12T07:14:28;26.83;;;22.38;;
51654;SDS011;37732;53.106;7.030;2023-08-12T07:16:56;32.28;;;22.35;;
51654;SDS011;37732;53.106;7.030;2023-08-12T07:19:22;23.55;;;21.05;;
51654;SDS011;37732;53.106;7.030;2023-08-12T07:21:48;25.63;;;21.45;;
51654;SDS011;37732;53.106;7.030;2023-08-12T07:24:14;23.65;;;20.15;;
51654;SDS011;37732;53.106;7.030;2023-08-12T07:26:40;25.80;;;21.67;;
51654;SDS011;37732;53.106;7.030;2023-08-12T07:29:06;23.58;;;20.42;;
51654;SDS011;37732;53.106;7.030;2023-08-12T07:31:32;27.10;;;21.77;;
51654;SDS011;37732;53.106;7.030;2023-08-12T07:33:58;26.13;;;19.13;;
51654;SDS011;37732;53.106;7.030;2023-08-12T07:36:24;29.30;;;23.55;;
51654;SDS011;37732;53.106;7.030;2023-08-12T07:38:53;25.42;;;20.13;;
51654;SDS011;37732;53.106;7.030;2023-08-12T07:41:21;25.88;;;23.08;;
51654;SDS011;37732;53.106;7.030;2023-08-12T07:43:47;24.17;;;20.52;;
51654;SDS011;37732;53.106;7.030;2023-08-12T07:46:13;24.27;;;21.65;;
51654;SDS011;37732;53.106;7.030;2023-08-12T07:48:40;24.33;;;21.50;;
51654;SDS011;37732;53.106;7.030;2023-08-12T07:51:07;23.00;;;19.13;;
51654;SDS011;37732;53.106;7.030;2023-08-12T07:53:35;20.92;;;18.55;;
51654;SDS011;37732;53.106;7.030;2023-08-12T07:56:01;25.38;;;19.30;;
51654;SDS011;37732;53.106;7.030;2023-08-12T07:58:27;23.17;;;20.65;;
51654;SDS011;37732;53.106;7.030;2023-08-12T08:00:54;21.50;;;19.20;;
51654;SDS011;37732;53.106;7.030;2023-08-12T08:03:22;21.92;;;19.70;;
51654;SDS011;37732;53.106;7.030;2023-08-12T08:05:50;26.23;;;20.73;;
51654;SDS011;37732;53.106;7.030;2023-08-12T08:08:19;28.20;;;20.00;;
51654;SDS011;37732;53.106;7.030;2023-08-12T08:10:48;24.00;;;21.38;;
51654;SDS011;37732;53.106;7.030;2023-08-12T08:13:17;26.50;;;20.80;;
51654;SDS011;37732;53.106;7.030;2023-08-12T08:15:43;26.75;;;23.67;;
51654;SDS011;37732;53.106;7.030;2023-08-12T08:18:10;25.42;;;22.42;;
51654;SDS011;37732;53.106;7.030;2023-08-12T08:20:37;24.02;;;21.35;;
51654;SDS011;37732;53.106;7.030;2023-08-12T08:23:03;24.10;;;21.70;;
51654;SDS011;37732;53.106;7.030;2023-08-12T08:25:29;23.65;;;21.05;;
51654;SDS011;37732;53.106;7.030;2023-08-12T08:27:55;25.17;;;22.48;;
51654;SDS011;37732;53.106;7.030;2023-08-12T08:30:22;29.08;;;24.00;;
51654;SDS011;37732;53.106;7.030;2023-08-12T08:32:50;29.48;;;21.10;;
51654;SDS011;37732;53.106;7.030;2023-08-12T08:35:19;25.23;;;21.98;;
51654;SDS011;37732;53.106;7.030;2023-08-12T08:37:44;32.25;;;24.42;;
51654;SDS011;37732;53.106;7.030;2023-08-12T08:40:12;28.48;;;23.33;;
51654;SDS011;37732;53.106;7.030;2023-08-12T08:42:38;29.70;;;24.60;;
51654;SDS011;37732;53.106;7.030;2023-08-12T08:45:11;26.08;;;22.98;;
51654;SDS011;37732;53.106;7.030;2023-08-12T08:47:38;28.15;;;24.65;;
51654;SDS011;37732;53.106;7.030;2023-08-12T08:50:08;28.08;;;25.10;;
51654;SDS011;37732;53.106;7.030;2023-08-12T08:52:36;25.58;;;21.92;;
51654;SDS011;37732;53.106;7.030;2023-08-12T08:55:04;27.67;;;24.83;;
51654;SDS011;37732;53.106;7.030;2023-08-12T08:57:32;26.27;;;22.63;;
51654;SDS011;37732;53.106;7.030;2023-08-12T08:59:58;31.92;;;25.40;;
51654;SDS011;37732;53.106;7.030;2023-08-12T09:02:25;27.45;;;24.60;;
51654;SDS011;37732;53.106;7.030;2023-08-12T09:04:52;27.10;;;23.52;;
51654;SDS011;37732;53.106;7.030;2023-08-12T09:07:21;25.45;;;22.80;;
51654;SDS011;37732;53.106;7.030;2023-08-12T09:09:50;26.30;;;23.52;;
51654;SDS011;37732;53.106;7.030;2023-08-12T09:12:22;24.08;;;21.70;;
51654;SDS011;37732;53.106;7.030;2023-08-12T09:14:51;25.75;;;22.73;;
51654;SDS011;37732;53.106;7.030;2023-08-12T09:17:17;26.00;;;23.35;;
51654;SDS011;37732;53.106;7.030;2023-08-12T09:19:43;23.92;;;21.42;;
51654;SDS011;37732;53.106;7.030;2023-08-12T09:22:10;30.33;;;25.42;;
51654;SDS011;37732;53.106;7.030;2023-08-12T09:24:36;26.92;;;23.58;;
51654;SDS011;37732;53.106;7.030;2023-08-12T09:27:04;27.08;;;23.42;;
51654;SDS011;37732;53.106;7.030;2023-08-12T09:29:33;24.58;;;22.15;;
51654;SDS011;37732;53.106;7.030;2023-08-12T09:34:46;21.75;;;19.45;;
51654;SDS011;37732;53.106;7.030;2023-08-12T09:37:13;21.70;;;19.25;;
51654;SDS011;37732;53.106;7.030;2023-08-12T09:39:41;23.08;;;20.50;;
51654;SDS011;37732;53.106;7.030;2023-08-12T09:42:08;27.90;;;24.95;;
51654;SDS011;37732;53.106;7.030;2023-08-12T09:44:36;25.33;;;19.88;;
51654;SDS011;37732;53.106;7.030;2023-08-12T09:47:03;21.30;;;19.15;;
51654;SDS011;37732;53.106;7.030;2023-08-12T09:49:29;23.00;;;20.55;;
51654;SDS011;37732;53.106;7.030;2023-08-12T09:51:56;27.23;;;22.38;;
51654;SDS011;37732;53.106;7.030;2023-08-12T09:54:25;20.67;;;18.45;;
51654;SDS011;37732;53.106;7.030;2023-08-12T09:56:54;16.92;;;15.13;;
51654;SDS011;37732;53.106;7.030;2023-08-12T09:59:24;17.08;;;15.32;;
51654;SDS011;37732;53.106;7.030;2023-08-12T10:02:01;15.57;;;13.85;;
51654;SDS011;37732;53.106;7.030;2023-08-12T10:04:48;12.75;;;11.23;;
51654;SDS011;37732;53.106;7.030;2023-08-12T10:07:23;12.88;;;10.13;;
51654;SDS011;37732;53.106;7.030;2023-08-12T10:09:51;14.20;;;9.70;;
51654;SDS011;37732;53.106;7.030;2023-08-12T10:12:19;13.18;;;9.30;;
51654;SDS011;37732;53.106;7.030;2023-08-12T10:14:46;14.68;;;9.85;;
51654;SDS011;37732;53.106;7.030;2023-08-12T10:17:12;14.43;;;9.05;;
51654;SDS011;37732;53.106;7.030;2023-08-12T10:19:43;12.48;;;10.75;;
51654;SDS011;37732;53.106;7.030;2023-08-12T10:22:12;19.42;;;12.15;;
51654;SDS011;37732;53.106;7.030;2023-08-12T10:24:45;12.43;;;10.00;;
51654;SDS011;37732;53.106;7.030;2023-08-12T10:27:15;12.73;;;9.07;;
51654;SDS011;37732;53.106;7.030;2023-08-12T10:29:45;8.93;;;8.00;;
51654;SDS011;37732;53.106;7.030;2023-08-12T10:32:13;13.13;;;8.45;;
51654;SDS011;37732;53.106;7.030;2023-08-12T10:34:41;14.23;;;10.95;;
51654;SDS011;37732;53.106;7.030;2023-08-12T10:37:08;10.23;;;8.27;;
51654;SDS011;37732;53.106;7.030;2023-08-12T10:39:38;13.98;;;9.80;;
51654;SDS011;37732;53.106;7.030;2023-08-12T10:42:05;14.95;;;10.27;;
51654;SDS011;37732;53.106;7.030;2023-08-12T10:47:17;11.65;;;7.18;;
51654;SDS011;37732;53.106;7.030;2023-08-12T10:49:49;8.25;;;7.00;;
51654;SDS011;37732;53.106;7.030;2023-08-12T10:52:28;15.25;;;9.63;;
51654;SDS011;37732;53.106;7.030;2023-08-12T10:55:41;8.85;;;7.22;;
51654;SDS011;37732;53.106;7.030;2023-08-12T10:57:54;10.18;;;7.47;;
51654;SDS011;37732;53.106;7.030;2023-08-12T11:00:25;9.55;;;7.43;;
51654;SDS011;37732;53.106;7.030;2023-08-12T11:02:53;7.55;;;5.15;;
51654;SDS011;37732;53.106;7.030;2023-08-12T11:05:22;7.38;;;5.85;;
51654;SDS011;37732;53.106;7.030;2023-08-12T11:07:56;7.28;;;6.03;;
51654;SDS011;37732;53.106;7.030;2023-08-12T11:10:27;7.65;;;6.22;;
51654;SDS011;37732;53.106;7.030;2023-08-12T11:12:56;8.85;;;6.50;;
51654;SDS011;37732;53.106;7.030;2023-08-12T11:15:35;9.85;;;6.90;;
51654;SDS011;37732;53.106;7.030;2023-08-12T11:18:06;7.05;;;6.18;;
51654;SDS011;37732;53.106;7.030;2023-08-12T11:20:34;7.88;;;6.07;;
51654;SDS011;37732;53.106;7.030;2023-08-12T11:23:02;8.38;;;6.03;;
51654;SDS011;37732;53.106;7.030;2023-08-12T11:25:30;6.53;;;5.63;;
51654;SDS011;37732;53.106;7.030;2023-08-12T11:27:56;7.10;;;5.22;;
51654;SDS011;37732;53.106;7.030;2023-08-12T11:30:25;6.80;;;5.07;;
51654;SDS011;37732;53.106;7.030;2023-08-12T11:32:52;8.77;;;6.53;;
51654;SDS011;37732;53.106;7.030;2023-08-12T11:35:21;8.65;;;6.57;;
51654;SDS011;37732;53.106;7.030;2023-08-12T11:37:50;6.40;;;4.78;;
51654;SDS011;37732;53.106;7.030;2023-08-12T11:40:20;7.78;;;5.97;;
51654;SDS011;37732;53.106;7.030;2023-08-12T11:42:49;7.13;;;5.13;;
51654;SDS011;37732;53.106;7.030;2023-08-12T11:45:19;7.93;;;5.60;;
51654;SDS011;37732;53.106;7.030;2023-08-12T11:47:52;5.57;;;3.92;;
51654;SDS011;37732;53.106;7.030;2023-08-12T11:50:19;5.07;;;3.63;;
51654;SDS011;37732;53.106;7.030;2023-08-12T11:52:48;5.75;;;3.35;;
51654;SDS011;37732;53.106;7.030;2023-08-12T11:55:17;5.28;;;4.03;;
51654;SDS011;37732;53.106;7.030;2023-08-12T11:57:44;5.70;;;3.65;;
51654;SDS011;37732;53.106;7.030;2023-08-12T12:00:10;4.70;;;3.28;;
51654;SDS011;37732;53.106;7.030;2023-08-12T12:05:16;4.85;;;3.33;;
51654;SDS011;37732;53.106;7.030;2023-08-12T12:07:47;5.68;;;3.85;;
51654;SDS011;37732;53.106;7.030;2023-08-12T12:10:49;5.05;;;3.60;;
51654;SDS011;37732;53.106;7.030;2023-08-12T12:13:11;4.55;;;3.47;;
51654;SDS011;37732;53.106;7.030;2023-08-12T12:15:43;5.10;;;3.30;;
51654;SDS011;37732;53.106;7.030;2023-08-12T12:18:12;5.47;;;3.78;;
51654;SDS011;37732;53.106;7.030;2023-08-12T12:20:53;4.72;;;3.30;;
51654;SDS011;37732;53.106;7.030;2023-08-12T12:23:21;6.32;;;3.58;;
51654;SDS011;37732;53.106;7.030;2023-08-12T12:25:58;5.82;;;3.45;;
51654;SDS011;37732;53.106;7.030;2023-08-12T12:28:26;4.50;;;3.43;;
51654;SDS011;37732;53.106;7.030;2023-08-12T12:30:53;5.07;;;3.55;;
51654;SDS011;37732;53.106;7.030;2023-08-12T12:33:21;5.38;;;3.35;;
51654;SDS011;37732;53.106;7.030;2023-08-12T12:35:47;2.45;;;2.00;;
51654;SDS011;37732;53.106;7.030;2023-08-12T12:38:15;3.40;;;1.90;;
51654;SDS011;37732;53.106;7.030;2023-08-12T12:40:40;3.90;;;2.10;;
51654;SDS011;37732;53.106;7.030;2023-08-12T12:43:07;2.83;;;2.05;;
51654;SDS011;37732;53.106;7.030;2023-08-12T12:45:32;4.18;;;2.60;;
51654;SDS011;37732;53.106;7.030;2023-08-12T12:48:00;3.28;;;2.40;;
51654;SDS011;37732;53.106;7.030;2023-08-12T12:50:27;2.65;;;1.83;;
51654;SDS011;37732;53.106;7.030;2023-08-12T12:52:53;2.03;;;1.50;;
51654;SDS011;37732;53.106;7.030;2023-08-12T12:55:18;3.33;;;1.65;;
51654;SDS011;37732;53.106;7.030;2023-08-12T12:57:46;2.20;;;1.52;;
51654;SDS011;37732;53.106;7.030;2023-08-12T13:00:13;3.13;;;1.67;;
51654;SDS011;37732;53.106;7.030;2023-08-12T13:02:41;2.00;;;1.45;;
51654;SDS011;37732;53.106;7.030;2023-08-12T13:05:09;2.58;;;1.50;;
51654;SDS011;37732;53.106;7.030;2023-08-12T13:07:36;1.83;;;1.65;;
51654;SDS011;37732;53.106;7.030;2023-08-12T13:10:02;3.63;;;2.03;;
51654;SDS011;37732;53.106;7.030;2023-08-12T13:12:30;3.53;;;2.03;;
51654;SDS011;37732;53.106;7.030;2023-08-12T13:14:56;3.35;;;1.92;;
51654;SDS011;37732;53.106;7.030;2023-08-12T13:17:22;3.20;;;2.10;;
51654;SDS011;37732;53.106;7.030;2023-08-12T13:19:48;3.20;;;1.95;;
51654;SDS011;37732;53.106;7.030;2023-08-12T13:22:16;3.47;;;2.00;;
51654;SDS011;37732;53.106;7.030;2023-08-12T13:24:43;3.83;;;2.33;;
51654;SDS011;37732;53.106;7.030;2023-08-12T13:27:09;4.57;;;2.35;;
51654;SDS011;37732;53.106;7.030;2023-08-12T13:29:36;4.45;;;2.67;;
51654;SDS011;37732;53.106;7.030;2023-08-12T13:32:02;3.53;;;2.33;;
51654;SDS011;37732;53.106;7.030;2023-08-12T13:34:30;5.45;;;2.60;;
51654;SDS011;37732;53.106;7.030;2023-08-12T13:36:56;3.97;;;2.40;;
51654;SDS011;37732;53.106;7.030;2023-08-12T13:39:21;3.80;;;2.22;;
51654;SDS011;37732;53.106;7.030;2023-08-12T13:41:47;4.45;;;2.05;;
51654;SDS011;37732;53.106;7.030;2023-08-12T13:44:16;5.45;;;2.30;;
51654;SDS011;37732;53.106;7.030;2023-08-12T13:46:44;7.30;;;2.58;;
51654;SDS011;37732;53.106;7.030;2023-08-12T13:49:10;6.28;;;2.85;;
51654;SDS011;37732;53.106;7.030;2023-08-12T13:51:38;7.70;;;3.05;;
51654;SDS011;37732;53.106;7.030;2023-08-12T13:54:05;6.22;;;3.30;;
51654;SDS011;37732;53.106;7.030;2023-08-12T13:56:31;5.88;;;2.78;;
51654;SDS011;37732;53.106;7.030;2023-08-12T13:58:57;5.65;;;2.70;;
51654;SDS011;37732;53.106;7.030;2023-08-12T14:01:24;6.57;;;2.95;;
51654;SDS011;37732;53.106;7.030;2023-08-12T14:03:50;6.70;;;2.60;;
51654;SDS011;37732;53.106;7.030;2023-08-12T14:06:17;6.40;;;2.60;;
51654;SDS011;37732;53.106;7.030;2023-08-12T14:08:43;9.25;;;3.47;;
51654;SDS011;37732;53.106;7.030;2023-08-12T14:11:11;5.50;;;2.67;;
51654;SDS011;37732;53.106;7.030;2023-08-12T14:13:37;10.07;;;3.65;;
51654;SDS011;37732;53.106;7.030;2023-08-12T14:16:04;6.90;;;3.33;;
51654;SDS011;37732;53.106;7.030;2023-08-12T14:18:30;10.18;;;3.40;;
51654;SDS011;37732;53.106;7.030;2023-08-12T14:20:56;7.13;;;3.08;;
51654;SDS011;37732;53.106;7.030;2023-08-12T14:23:24;11.85;;;3.15;;
51654;SDS011;37732;53.106;7.030;2023-08-12T14:25:54;6.30;;;2.75;;
51654;SDS011;37732;53.106;7.030;2023-08-12T14:28:20;10.25;;;2.90;;
51654;SDS011;37732;53.106;7.030;2023-08-12T14:30:46;5.28;;;2.95;;
51654;SDS011;37732;53.106;7.030;2023-08-12T14:33:14;5.47;;;2.97;;
51654;SDS011;37732;53.106;7.030;2023-08-12T14:35:40;6.90;;;3.30;;
51654;SDS011;37732;53.106;7.030;2023-08-12T14:38:05;6.45;;;3.53;;
51654;SDS011;37732;53.106;7.030;2023-08-12T14:40:31;7.35;;;2.92;;
51654;SDS011;37732;53.106;7.030;2023-08-12T14:42:57;7.65;;;3.20;;
51654;SDS011;37732;53.106;7.030;2023-08-12T14:45:24;8.57;;;3.58;;
51654;SDS011;37732;53.106;7.030;2023-08-12T14:47:50;7.65;;;2.90;;
51654;SDS011;37732;53.106;7.030;2023-08-12T14:50:18;7.53;;;3.08;;